createdAt,value
2023-01-18T00:00:51.077Z,72.50
2023-01-18T00:03:18.952Z,71.20
2023-01-18T00:05:45.900Z,64.40
2023-01-18T00:08:16.955Z,60.10
2023-01-18T00:10:44.097Z,60.00
2023-01-18T00:13:12.312Z,58.70
2023-01-18T00:15:42.398Z,59.50
2023-01-18T00:18:09.452Z,57.70
2023-01-18T00:20:36.407Z,54.90
2023-01-18T00:23:03.455Z,56.50
2023-01-18T00:25:31.034Z,57.70
2023-01-18T00:27:57.978Z,58.40
2023-01-18T00:30:27.362Z,65.40
2023-01-18T00:32:57.648Z,69.20
2023-01-18T00:35:25.899Z,83.50
2023-01-18T00:37:53.859Z,73.70
2023-01-18T00:40:23.157Z,76.10
2023-01-18T00:43:08.328Z,71.70
2023-01-18T00:45:35.270Z,71.20
2023-01-18T00:48:03.670Z,74.20
2023-01-18T00:50:30.513Z,64.10
2023-01-18T00:52:59.132Z,63.40
2023-01-18T00:55:26.865Z,55.90
2023-01-18T00:57:54.059Z,52.40
2023-01-18T01:00:26.878Z,50.40
2023-01-18T01:02:54.882Z,49.00
2023-01-18T01:05:42.837Z,49.60
2023-01-18T01:08:17.292Z,46.50
2023-01-18T01:10:46.850Z,43.50
2023-01-18T01:13:34.972Z,47.50
2023-01-18T01:16:30.761Z,50.60
2023-01-18T01:19:17.076Z,47.00
2023-01-18T01:22:02.648Z,47.50
2023-01-18T01:24:48.534Z,45.90
2023-01-18T01:27:15.699Z,44.10
2023-01-18T01:29:42.552Z,44.00
2023-01-18T01:32:09.795Z,38.00
2023-01-18T01:34:36.948Z,37.00
2023-01-18T01:37:04.817Z,38.10
2023-01-18T01:39:31.775Z,38.40
2023-01-18T01:41:58.940Z,36.60
2023-01-18T01:44:28.372Z,38.90
2023-01-18T01:47:25.265Z,40.30
2023-01-18T01:49:58.627Z,42.00
2023-01-18T01:52:33.777Z,38.60
2023-01-18T01:55:12.211Z,40.30
2023-01-18T01:57:44.875Z,43.90
2023-01-18T02:00:16.141Z,41.10
2023-01-18T02:02:49.990Z,43.70
2023-01-18T02:05:18.328Z,47.30
2023-01-18T02:07:45.915Z,44.40
2023-01-18T02:10:12.958Z,46.30
2023-01-18T02:12:42.866Z,46.20
2023-01-18T02:17:54.471Z,50.20
2023-01-18T02:20:50.891Z,50.60
2023-01-18T02:23:23.676Z,48.80
2023-01-18T02:26:32.118Z,55.90
2023-01-18T02:29:15.604Z,48.80
2023-01-18T02:32:23.578Z,50.10
2023-01-18T02:34:58.626Z,46.60
2023-01-18T02:37:50.546Z,46.20
2023-01-18T02:40:26.293Z,42.80
2023-01-18T02:43:13.101Z,42.50
2023-01-18T02:46:05.237Z,45.50
2023-01-18T02:48:41.510Z,44.90
2023-01-18T02:51:08.746Z,41.70
2023-01-18T02:53:40.935Z,43.50
2023-01-18T02:56:16.162Z,43.10
2023-01-18T02:58:48.012Z,44.00
2023-01-18T03:01:38.019Z,42.20
2023-01-18T03:04:24.382Z,41.70
2023-01-18T03:06:57.780Z,44.10
2023-01-18T03:09:27.361Z,44.80
2023-01-18T03:12:16.248Z,41.70
2023-01-18T03:15:05.891Z,42.20
2023-01-18T03:17:42.384Z,40.90
2023-01-18T03:20:16.019Z,40.90
2023-01-18T03:23:12.317Z,48.00
2023-01-18T03:25:43.151Z,48.80
2023-01-18T03:28:46.217Z,48.90
2023-01-18T03:31:38.155Z,48.70
2023-01-18T03:34:14.316Z,51.30
2023-01-18T03:36:49.442Z,50.20
2023-01-18T03:39:38.793Z,50.40
2023-01-18T03:42:12.381Z,50.50
2023-01-18T03:44:55.211Z,48.80
2023-01-18T03:47:22.362Z,49.00
2023-01-18T03:49:49.619Z,46.20
2023-01-18T03:52:30.076Z,46.30
2023-01-18T03:55:10.638Z,45.20
2023-01-18T03:57:54.166Z,44.50
2023-01-18T04:00:21.118Z,42.20
2023-01-18T04:02:50.366Z,39.20
2023-01-18T04:05:18.316Z,40.80
2023-01-18T04:07:45.454Z,42.30
2023-01-18T04:10:12.711Z,41.10
2023-01-18T04:12:39.861Z,40.50
2023-01-18T04:15:07.346Z,38.00
2023-01-18T04:17:34.275Z,38.80
2023-01-18T04:20:04.773Z,41.40
2023-01-18T04:22:31.761Z,43.80
2023-01-18T04:24:58.611Z,43.30
2023-01-18T04:27:25.675Z,40.20
2023-01-18T04:29:52.612Z,42.10
2023-01-18T04:32:19.575Z,41.60
2023-01-18T04:34:46.626Z,40.60
2023-01-18T04:37:13.564Z,40.70
2023-01-18T04:39:40.511Z,42.50
2023-01-18T04:42:07.465Z,41.20
2023-01-18T04:44:34.415Z,42.40
2023-01-18T04:47:01.363Z,42.30
2023-01-18T04:49:28.315Z,46.10
2023-01-18T04:51:55.279Z,41.00
2023-01-18T04:54:22.120Z,40.10
2023-01-18T04:56:49.078Z,42.80
2023-01-18T04:59:16.917Z,41.50
2023-01-18T05:01:44.466Z,39.80
2023-01-18T05:04:11.365Z,36.70
2023-01-18T05:06:38.302Z,37.50
2023-01-18T05:09:05.262Z,33.80
2023-01-18T05:11:32.403Z,36.20
2023-01-18T05:13:59.363Z,31.90
2023-01-18T05:16:26.329Z,33.70
2023-01-18T05:18:53.256Z,30.40
2023-01-18T05:21:20.417Z,30.50
2023-01-18T05:23:47.363Z,30.00
2023-01-18T05:26:21.051Z,25.00
2023-01-18T05:28:49.450Z,27.20
2023-01-18T05:31:18.917Z,23.20
2023-01-18T05:33:45.912Z,26.50
2023-01-18T05:36:12.865Z,23.30
2023-01-18T05:38:39.820Z,22.60
2023-01-18T05:41:06.760Z,21.20
2023-01-18T05:43:35.590Z,19.20
2023-01-18T05:46:02.757Z,21.10
2023-01-18T05:48:30.381Z,22.10
2023-01-18T05:50:57.429Z,21.80
2023-01-18T05:53:24.383Z,17.10
2023-01-18T05:56:01.674Z,19.50
2023-01-18T05:58:29.439Z,18.80
2023-01-18T06:00:56.668Z,16.30
2023-01-18T06:03:25.448Z,16.70
2023-01-18T06:05:52.639Z,17.50
2023-01-18T06:08:20.425Z,16.90
2023-01-18T06:10:58.616Z,17.40
2023-01-18T06:13:28.219Z,15.70
2023-01-18T06:15:59.169Z,14.10
2023-01-18T06:18:28.538Z,17.50
2023-01-18T06:20:59.650Z,15.00
2023-01-18T06:23:29.385Z,15.00
2023-01-18T06:25:56.606Z,13.60
2023-01-18T06:28:23.748Z,14.10
2023-01-18T06:30:55.513Z,14.90
2023-01-18T06:33:23.718Z,16.40
2023-01-18T06:35:50.940Z,14.20
2023-01-18T06:38:17.996Z,13.30
2023-01-18T06:40:44.953Z,14.90
2023-01-18T06:43:14.531Z,12.20
2023-01-18T06:45:42.234Z,13.70
2023-01-18T06:48:09.481Z,15.70
2023-01-18T06:50:36.431Z,13.90
2023-01-18T06:53:03.391Z,13.80
2023-01-18T06:55:30.440Z,10.00
2023-01-18T06:57:57.384Z,11.00
2023-01-18T07:00:25.066Z,13.10
2023-01-18T07:02:57.683Z,10.60
2023-01-18T07:05:24.590Z,9.80
2023-01-18T07:07:51.477Z,10.70
2023-01-18T07:10:18.404Z,8.90
2023-01-18T07:12:49.021Z,11.00
2023-01-18T07:15:21.981Z,12.00
2023-01-18T07:17:50.747Z,12.70
2023-01-18T07:20:18.592Z,8.10
2023-01-18T07:22:45.928Z,8.20
2023-01-18T07:25:13.719Z,8.50
2023-01-18T07:27:43.408Z,9.60
2023-01-18T07:30:13.746Z,12.20
2023-01-18T07:32:48.684Z,10.90
2023-01-18T07:35:17.310Z,10.50
2023-01-18T07:37:49.563Z,10.00
2023-01-18T07:40:16.993Z,13.70
2023-01-18T07:42:44.046Z,12.00
2023-01-18T07:45:11.812Z,9.30
2023-01-18T07:47:39.996Z,9.30
2023-01-18T07:50:08.029Z,8.90
2023-01-18T07:52:35.021Z,10.70
2023-01-18T07:55:02.070Z,13.90
2023-01-18T07:57:29.026Z,11.40
2023-01-18T07:59:55.873Z,8.70
2023-01-18T08:02:22.946Z,8.60
2023-01-18T08:04:50.280Z,7.70
2023-01-18T08:07:18.252Z,6.80
2023-01-18T08:09:45.135Z,8.40
2023-01-18T08:12:18.399Z,6.20
2023-01-18T08:14:46.164Z,7.30
2023-01-18T08:17:13.117Z,6.60
2023-01-18T08:19:40.314Z,5.40
2023-01-18T08:22:08.253Z,5.50
2023-01-18T08:24:35.506Z,5.30
2023-01-18T08:27:02.453Z,5.60
2023-01-18T08:29:29.410Z,6.10
2023-01-18T08:31:56.499Z,5.10
2023-01-18T08:34:23.516Z,5.80
2023-01-18T08:36:51.390Z,6.90
2023-01-18T08:39:18.344Z,5.10
2023-01-18T08:41:46.837Z,5.60
2023-01-18T08:44:14.076Z,4.30
2023-01-18T08:46:41.075Z,5.20
2023-01-18T08:49:08.305Z,5.60
2023-01-18T08:51:35.344Z,5.20
2023-01-18T08:54:02.398Z,4.70
2023-01-18T08:56:29.568Z,5.40
2023-01-18T08:58:57.871Z,4.90
2023-01-18T09:01:28.181Z,3.90
2023-01-18T09:03:58.659Z,5.60
2023-01-18T09:06:32.264Z,8.70
2023-01-18T09:08:59.880Z,6.70
2023-01-18T09:11:27.079Z,9.80
2023-01-18T09:14:00.750Z,9.30
2023-01-18T09:16:31.999Z,5.70
2023-01-18T09:19:00.110Z,7.00
2023-01-18T09:21:30.321Z,8.30
2023-01-18T09:23:57.536Z,13.80
2023-01-18T09:26:24.578Z,17.40
2023-01-18T09:28:53.052Z,6.00
2023-01-18T09:31:22.471Z,7.60
2023-01-18T09:33:53.742Z,4.00
2023-01-18T09:36:26.951Z,3.90
2023-01-18T09:38:55.933Z,4.50
2023-01-18T09:41:36.870Z,6.80
2023-01-18T09:44:38.504Z,4.40
2023-01-18T09:47:27.680Z,5.70
2023-01-18T09:49:56.777Z,6.20
2023-01-18T09:52:38.487Z,4.70
2023-01-18T09:55:47.762Z,4.80
2023-01-18T09:58:20.640Z,4.60
2023-01-18T10:00:50.075Z,7.00
2023-01-18T10:03:29.611Z,8.70
2023-01-18T10:06:10.171Z,8.00
2023-01-18T10:08:48.661Z,6.20
2023-01-18T10:11:30.279Z,8.00
2023-01-18T10:14:06.225Z,8.10
2023-01-18T10:16:34.981Z,12.00
2023-01-18T10:19:02.928Z,8.00
2023-01-18T10:21:49.512Z,6.30
2023-01-18T10:24:28.026Z,5.20
2023-01-18T10:27:19.934Z,7.50
2023-01-18T10:29:52.701Z,5.30
2023-01-18T10:32:23.793Z,7.50
2023-01-18T10:34:52.510Z,7.70
2023-01-18T10:37:39.243Z,7.60
2023-01-18T10:40:10.346Z,15.20
2023-01-18T10:42:46.885Z,8.40
2023-01-18T10:45:23.117Z,9.30
2023-01-18T10:47:52.179Z,7.40
2023-01-18T10:50:35.751Z,7.60
2023-01-18T10:53:21.944Z,8.10
2023-01-18T10:55:56.877Z,14.80
2023-01-18T10:58:30.738Z,7.00
2023-01-18T11:01:00.328Z,6.70
2023-01-18T11:03:28.771Z,5.70
2023-01-18T11:06:05.039Z,7.60
2023-01-18T11:08:34.490Z,7.00
2023-01-18T11:11:05.246Z,8.40
2023-01-18T11:13:35.212Z,14.70
2023-01-18T11:18:56.005Z,24.30
2023-01-18T11:21:23.987Z,28.10
2023-01-18T11:23:53.513Z,20.00
2023-01-18T11:26:23.698Z,10.40
2023-01-18T11:29:06.701Z,12.80
2023-01-18T11:31:46.119Z,10.50
2023-01-18T11:34:30.316Z,9.70
2023-01-18T11:37:00.214Z,9.80
2023-01-18T11:42:14.299Z,10.90
2023-01-18T11:45:06.121Z,13.70
2023-01-18T11:47:42.372Z,14.00
2023-01-18T11:50:24.058Z,16.40
2023-01-18T11:53:25.305Z,17.70
2023-01-18T11:56:06.683Z,13.90
2023-01-18T11:58:36.105Z,13.70
2023-01-18T12:01:28.100Z,14.70
2023-01-18T12:04:02.732Z,13.90
2023-01-18T12:06:41.726Z,30.80
2023-01-18T12:09:14.761Z,60.20
2023-01-18T12:12:17.362Z,33.10
2023-01-18T12:14:55.426Z,45.30
2023-01-18T12:18:12.489Z,36.80
2023-01-18T12:20:58.560Z,38.90
2023-01-18T12:23:53.373Z,31.90
2023-01-18T12:26:45.513Z,21.10
2023-01-18T12:29:34.859Z,41.10
2023-01-18T12:32:28.624Z,34.60
2023-01-18T12:35:24.175Z,23.90
2023-01-18T12:38:01.427Z,26.40
2023-01-18T12:40:31.943Z,18.60
2023-01-18T12:43:19.079Z,22.80
2023-01-18T12:45:57.492Z,23.80
2023-01-18T12:48:33.416Z,27.20
2023-01-18T12:51:00.782Z,19.70
2023-01-18T12:53:39.546Z,21.40
2023-01-18T12:56:20.784Z,20.10
2023-01-18T12:58:57.043Z,26.50
2023-01-18T13:01:29.135Z,23.80
2023-01-18T13:04:07.363Z,22.10
2023-01-18T13:06:40.315Z,18.60
2023-01-18T13:09:19.839Z,22.30
2023-01-18T13:11:47.817Z,20.10
2023-01-18T13:14:22.343Z,16.50
2023-01-18T13:17:09.149Z,15.50
2023-01-18T13:19:56.251Z,17.10
2023-01-18T13:22:48.192Z,18.10
2023-01-18T13:25:36.828Z,17.50
2023-01-18T13:28:18.979Z,16.60
2023-01-18T13:31:01.988Z,14.00
2023-01-18T13:33:32.875Z,17.80
2023-01-18T13:36:02.893Z,13.70
2023-01-18T13:38:41.106Z,13.30
2023-01-18T13:41:12.012Z,13.40
2023-01-18T13:43:40.628Z,10.90
2023-01-18T13:46:07.624Z,12.40
2023-01-18T13:48:42.028Z,14.70
2023-01-18T13:51:11.835Z,14.50
2023-01-18T13:53:49.818Z,13.90
2023-01-18T13:56:30.382Z,13.40
2023-01-18T13:59:06.233Z,15.00
2023-01-18T14:01:36.286Z,23.10
2023-01-18T14:04:30.944Z,19.40
2023-01-18T14:07:02.282Z,17.00
2023-01-18T14:09:43.868Z,17.00
2023-01-18T14:12:12.157Z,13.60
2023-01-18T14:14:59.893Z,15.90
2023-01-18T14:17:27.847Z,13.50
2023-01-18T14:20:13.943Z,13.20
2023-01-18T14:23:10.459Z,13.40
2023-01-18T14:25:49.641Z,13.00
2023-01-18T14:28:23.515Z,11.00
2023-01-18T14:30:56.787Z,12.10
2023-01-18T14:33:37.580Z,12.50
2023-01-18T14:36:08.735Z,16.80
2023-01-18T14:38:36.782Z,18.80
2023-01-18T14:41:08.385Z,14.30
2023-01-18T14:43:41.122Z,16.70
2023-01-18T14:46:16.164Z,17.90
2023-01-18T14:48:56.317Z,17.20
2023-01-18T14:51:28.906Z,23.80
2023-01-18T14:53:59.857Z,29.10
2023-01-18T14:56:30.479Z,25.70
2023-01-18T14:58:57.520Z,21.60
2023-01-18T15:01:24.581Z,33.00
2023-01-18T15:03:57.200Z,22.90
2023-01-18T15:06:27.071Z,32.00
2023-01-18T15:08:54.939Z,37.20
2023-01-18T15:11:24.710Z,33.60
2023-01-18T15:16:24.487Z,32.40
2023-01-18T15:18:54.767Z,33.80
2023-01-18T15:21:25.347Z,34.30
2023-01-18T15:23:57.624Z,23.70
2023-01-18T15:26:44.761Z,39.20
2023-01-18T15:29:19.361Z,46.50
2023-01-18T15:31:50.380Z,39.30
2023-01-18T15:34:31.402Z,27.20
2023-01-18T15:37:00.895Z,36.90
2023-01-18T15:39:28.038Z,37.50
2023-01-18T15:41:57.239Z,23.70
2023-01-18T15:44:51.203Z,26.50
2023-01-18T15:47:28.583Z,23.40
2023-01-18T15:49:59.059Z,20.60
2023-01-18T15:52:36.764Z,25.30
2023-01-18T15:55:06.749Z,21.10
2023-01-18T15:57:36.652Z,21.30
2023-01-18T16:02:33.539Z,17.50
2023-01-18T16:05:30.558Z,17.40
2023-01-18T16:08:17.996Z,62.30
2023-01-18T16:10:51.801Z,39.20
2023-01-18T16:13:37.114Z,32.10
2023-01-18T16:16:16.222Z,41.50
2023-01-18T16:19:00.427Z,26.30
2023-01-18T16:21:33.837Z,93.80
2023-01-18T16:24:00.988Z,17.90
2023-01-18T16:26:30.791Z,26.70
2023-01-18T16:31:40.772Z,30.50
2023-01-18T16:34:28.080Z,25.30
2023-01-18T16:36:55.157Z,24.10
2023-01-18T16:39:24.339Z,28.20
2023-01-18T16:41:54.729Z,29.50
2023-01-18T16:44:22.433Z,22.10
2023-01-18T16:46:50.202Z,21.30
2023-01-18T16:49:17.145Z,25.90
2023-01-18T16:51:44.201Z,19.10
2023-01-18T16:54:11.250Z,17.40
2023-01-18T16:56:39.536Z,18.80
2023-01-18T16:59:17.579Z,19.20
2023-01-18T17:01:45.827Z,19.20
2023-01-18T17:04:13.072Z,17.50
2023-01-18T17:06:41.153Z,18.90
2023-01-18T17:09:22.636Z,20.30
2023-01-18T17:11:50.841Z,21.90
2023-01-18T17:14:18.888Z,19.70
2023-01-18T17:16:47.837Z,15.50
2023-01-18T17:19:17.955Z,17.30
2023-01-18T17:21:47.087Z,18.20
2023-01-18T17:26:43.109Z,16.30
2023-01-18T17:29:17.842Z,16.70
2023-01-18T17:31:52.216Z,17.00
2023-01-18T17:34:28.463Z,18.90
2023-01-18T17:36:58.560Z,14.60
2023-01-18T17:39:37.024Z,17.10
2023-01-18T17:42:14.341Z,15.60
2023-01-18T17:44:43.494Z,17.50
2023-01-18T17:47:10.761Z,18.40
2023-01-18T17:49:37.805Z,19.70
2023-01-18T17:52:05.476Z,18.60
2023-01-18T17:54:33.967Z,20.60
2023-01-18T17:57:01.671Z,24.00
2023-01-18T17:59:28.613Z,22.20
2023-01-18T18:01:55.646Z,22.60
2023-01-18T18:04:22.795Z,22.90
2023-01-18T18:06:54.384Z,25.50
2023-01-18T18:09:21.810Z,26.50
2023-01-18T18:11:48.968Z,29.30
2023-01-18T18:14:16.720Z,27.50
2023-01-18T18:16:46.698Z,25.00
2023-01-18T18:19:14.925Z,27.30
2023-01-18T18:21:43.225Z,26.80
2023-01-18T18:24:10.456Z,32.70
2023-01-18T18:26:37.729Z,29.80
2023-01-18T18:29:05.079Z,42.00
2023-01-18T18:31:32.046Z,44.90
2023-01-18T18:33:58.978Z,28.70
2023-01-18T18:36:27.728Z,41.10
2023-01-18T18:38:55.248Z,41.20
2023-01-18T18:41:22.697Z,41.80
2023-01-18T18:43:49.745Z,30.30
2023-01-18T18:46:16.986Z,32.50
2023-01-18T18:48:44.466Z,35.00
2023-01-18T18:51:11.624Z,34.50
2023-01-18T18:53:39.701Z,27.20
2023-01-18T18:56:10.377Z,32.20
2023-01-18T18:58:38.815Z,31.00
2023-01-18T19:01:07.714Z,37.00
2023-01-18T19:03:36.355Z,29.20
2023-01-18T19:06:03.663Z,32.70
2023-01-18T19:08:31.546Z,32.90
2023-01-18T19:10:58.892Z,31.80
2023-01-18T19:13:26.351Z,34.50
2023-01-18T19:15:53.715Z,42.40
2023-01-18T19:18:20.887Z,34.40
2023-01-18T19:20:51.246Z,33.00
2023-01-18T19:23:18.970Z,33.20
2023-01-18T19:25:47.656Z,42.40
2023-01-18T19:28:16.616Z,33.30
2023-01-18T19:30:44.553Z,41.20
2023-01-18T19:33:13.341Z,32.90
2023-01-18T19:35:42.889Z,32.80
2023-01-18T19:38:09.962Z,33.40
2023-01-18T19:40:37.859Z,34.60
2023-01-18T19:43:05.052Z,37.60
2023-01-18T19:45:32.815Z,35.80
2023-01-18T19:48:01.471Z,38.00
2023-01-18T19:50:29.904Z,35.60
2023-01-18T19:52:57.797Z,33.90
2023-01-18T19:55:25.498Z,36.40
2023-01-18T19:57:56.326Z,35.70
2023-01-18T20:00:24.509Z,36.20
2023-01-18T20:02:51.703Z,41.60
2023-01-18T20:05:18.722Z,37.30
2023-01-18T20:07:46.189Z,38.40
2023-01-18T20:10:13.138Z,37.30
2023-01-18T20:12:40.595Z,40.10
2023-01-18T20:15:08.181Z,39.60
2023-01-18T20:17:35.110Z,39.60
2023-01-18T20:20:02.092Z,42.80
2023-01-18T20:22:29.440Z,43.90
2023-01-18T20:24:56.474Z,45.50
2023-01-18T20:27:23.530Z,45.50
2023-01-18T20:29:50.655Z,47.50
2023-01-18T20:32:18.247Z,49.50
2023-01-18T20:34:47.267Z,47.10
2023-01-18T20:37:15.775Z,55.70
2023-01-18T20:39:43.491Z,49.60
2023-01-18T20:42:10.549Z,45.40
2023-01-18T20:44:37.881Z,49.80
2023-01-18T20:47:05.078Z,55.00
2023-01-18T20:49:38.406Z,52.80
2023-01-18T20:52:07.531Z,52.20
2023-01-18T20:54:36.181Z,52.70
2023-01-18T20:57:05.540Z,52.60
2023-01-18T20:59:34.768Z,56.30
2023-01-18T21:02:03.281Z,54.40
2023-01-18T21:04:30.598Z,54.10
2023-01-18T21:06:58.169Z,49.30
2023-01-18T21:09:25.844Z,51.10
2023-01-18T21:11:52.782Z,50.20
2023-01-18T21:14:19.855Z,48.60
2023-01-18T21:16:47.249Z,55.70
2023-01-18T21:19:14.562Z,51.50
2023-01-18T21:21:41.512Z,46.80
2023-01-18T21:24:08.659Z,46.90
2023-01-18T21:26:36.539Z,44.60
2023-01-18T21:29:05.627Z,50.00
2023-01-18T21:31:32.945Z,43.70
2023-01-18T21:34:00.146Z,44.20
2023-01-18T21:36:28.363Z,43.20
2023-01-18T21:38:55.602Z,45.40
2023-01-18T21:41:41.366Z,50.70
2023-01-18T21:44:30.266Z,44.90
2023-01-18T21:46:57.494Z,47.30
2023-01-18T21:50:11.284Z,54.40
2023-01-18T21:52:49.011Z,49.50
2023-01-18T21:55:16.855Z,47.60
2023-01-18T21:57:44.733Z,41.90
2023-01-18T22:00:12.759Z,41.60
2023-01-18T22:02:39.900Z,40.60
2023-01-18T22:05:08.963Z,41.90
2023-01-18T22:07:36.334Z,45.50
2023-01-18T22:10:06.463Z,41.90
2023-01-18T22:12:36.313Z,45.40
2023-01-18T22:15:07.146Z,45.20
2023-01-18T22:17:34.367Z,43.30
2023-01-18T22:20:02.294Z,44.60
2023-01-18T22:22:29.502Z,45.80
2023-01-18T22:24:57.361Z,46.50
2023-01-18T22:27:24.683Z,49.50
2023-01-18T22:29:51.987Z,48.50
2023-01-18T22:32:19.344Z,45.40
2023-01-18T22:34:46.591Z,42.90
2023-01-18T22:37:13.642Z,43.40
2023-01-18T22:39:40.589Z,39.50
2023-01-18T22:42:07.967Z,35.20
2023-01-18T22:44:37.254Z,33.40
2023-01-18T22:47:04.726Z,31.20
2023-01-18T22:49:31.778Z,35.70
2023-01-18T22:51:58.821Z,36.30
2023-01-18T22:54:26.083Z,31.50
2023-01-18T22:56:53.029Z,33.80
2023-01-18T22:59:19.986Z,36.40
2023-01-18T23:01:47.178Z,37.10
2023-01-18T23:04:14.712Z,37.30
2023-01-18T23:06:51.014Z,38.20
2023-01-18T23:09:18.741Z,35.40
2023-01-18T23:11:47.756Z,39.30
2023-01-18T23:14:33.648Z,37.80
2023-01-18T23:17:19.615Z,38.50
2023-01-18T23:19:47.388Z,40.20
2023-01-18T23:22:14.733Z,37.10
2023-01-18T23:24:41.804Z,42.10
2023-01-18T23:27:12.343Z,52.60
2023-01-18T23:29:40.130Z,62.50
2023-01-18T23:32:08.264Z,45.70
2023-01-18T23:34:35.560Z,42.00
2023-01-18T23:37:02.987Z,37.20
2023-01-18T23:39:48.767Z,40.40
2023-01-18T23:42:34.260Z,42.80
2023-01-18T23:45:20.325Z,43.80
2023-01-18T23:48:05.897Z,45.60
2023-01-18T23:50:51.688Z,43.80
2023-01-18T23:53:37.327Z,43.70
2023-01-18T23:56:04.418Z,41.20
2023-01-18T23:58:33.414Z,41.20
